createdAt,value
2022-08-26T00:02:10.122Z,37.98
2022-08-26T00:04:40.543Z,38.15
2022-08-26T00:07:10.201Z,38.13
2022-08-26T00:09:42.108Z,38.13
2022-08-26T00:12:18.591Z,38.20
2022-08-26T00:14:57.520Z,38.45
2022-08-26T00:17:31.318Z,38.51
2022-08-26T00:20:01.063Z,38.41
2022-08-26T00:22:32.700Z,38.54
2022-08-26T00:25:02.648Z,38.52
2022-08-26T00:27:33.434Z,38.67
2022-08-26T00:30:22.776Z,38.81
2022-08-26T00:32:53.776Z,39.12
2022-08-26T00:35:24.108Z,39.29
2022-08-26T00:37:53.687Z,39.42
2022-08-26T00:40:30.964Z,39.46
2022-08-26T00:43:01.840Z,39.62
2022-08-26T00:45:40.261Z,39.89
2022-08-26T00:48:16.409Z,39.99
2022-08-26T00:50:55.273Z,40.10
2022-08-26T00:53:30.405Z,40.09
2022-08-26T00:56:07.476Z,40.26
2022-08-26T00:58:43.873Z,40.21
2022-08-26T01:01:14.277Z,40.40
2022-08-26T01:03:46.607Z,40.39
2022-08-26T01:06:16.365Z,40.30
2022-08-26T01:08:46.359Z,40.39
2022-08-26T01:11:16.936Z,40.42
2022-08-26T01:14:03.292Z,40.42
2022-08-26T01:16:33.281Z,40.46
2022-08-26T01:19:16.068Z,40.31
2022-08-26T01:22:01.218Z,40.31
2022-08-26T01:24:31.800Z,40.38
2022-08-26T01:27:04.879Z,40.45
2022-08-26T01:29:36.989Z,40.25
2022-08-26T01:32:10.575Z,40.15
2022-08-26T01:34:40.787Z,40.11
2022-08-26T01:37:15.619Z,40.16
2022-08-26T01:39:48.151Z,40.25
2022-08-26T01:42:20.972Z,40.01
2022-08-26T01:44:53.604Z,40.09
2022-08-26T01:47:30.093Z,39.94
2022-08-26T01:50:03.182Z,39.97
2022-08-26T01:52:36.787Z,39.96
2022-08-26T01:55:10.144Z,40.00
2022-08-26T01:57:40.054Z,40.20
2022-08-26T02:00:16.273Z,40.03
2022-08-26T02:02:52.789Z,40.09
2022-08-26T02:05:22.289Z,40.00
2022-08-26T02:07:52.308Z,39.70
2022-08-26T02:10:23.461Z,39.64
2022-08-26T02:12:53.315Z,39.72
2022-08-26T02:15:26.803Z,39.60
2022-08-26T02:18:00.930Z,39.61
2022-08-26T02:20:30.402Z,39.64
2022-08-26T02:23:02.817Z,39.34
2022-08-26T02:25:40.352Z,39.51
2022-08-26T02:28:10.455Z,39.64
2022-08-26T02:30:40.499Z,39.37
2022-08-26T02:33:10.096Z,39.61
2022-08-26T02:35:39.998Z,39.40
2022-08-26T02:38:11.078Z,39.26
2022-08-26T02:40:43.282Z,39.30
2022-08-26T02:43:16.979Z,39.37
2022-08-26T02:45:48.291Z,39.37
2022-08-26T02:48:21.356Z,39.22
2022-08-26T02:50:52.346Z,39.26
2022-08-26T02:53:25.279Z,39.16
2022-08-26T02:55:55.431Z,39.34
2022-08-26T02:58:28.253Z,39.25
2022-08-26T03:01:06.025Z,39.35
2022-08-26T03:03:40.629Z,39.37
2022-08-26T03:06:13.797Z,39.18
2022-08-26T03:08:43.890Z,39.09
2022-08-26T03:11:20.540Z,38.86
2022-08-26T03:13:53.753Z,38.82
2022-08-26T03:16:32.271Z,38.92
2022-08-26T03:19:04.247Z,38.87
2022-08-26T03:21:36.870Z,39.03
2022-08-26T03:24:11.414Z,39.74
2022-08-26T03:26:52.081Z,39.42
2022-08-26T03:29:41.118Z,38.73
2022-08-26T03:32:10.900Z,38.45
2022-08-26T03:34:40.700Z,38.44
2022-08-26T03:37:11.151Z,38.50
2022-08-26T03:39:42.833Z,38.44
2022-08-26T03:42:14.487Z,38.49
2022-08-26T03:44:43.722Z,38.51
2022-08-26T03:47:16.608Z,38.59
2022-08-26T03:49:47.109Z,38.63
2022-08-26T03:52:20.236Z,38.64
2022-08-26T03:54:53.953Z,38.70
2022-08-26T03:57:23.145Z,38.73
2022-08-26T03:59:52.700Z,38.85
2022-08-26T04:02:25.644Z,39.08
2022-08-26T04:04:56.769Z,38.90
2022-08-26T04:07:33.340Z,38.86
2022-08-26T04:10:06.330Z,38.96
2022-08-26T04:12:36.094Z,39.06
2022-08-26T04:15:07.490Z,39.01
2022-08-26T04:17:48.884Z,39.41
2022-08-26T04:20:18.286Z,39.32
2022-08-26T04:23:11.860Z,39.28
2022-08-26T04:25:47.805Z,39.39
2022-08-26T04:28:18.243Z,39.31
2022-08-26T04:35:31.592Z,39.60
2022-08-26T04:37:43.523Z,39.81
2022-08-26T04:40:14.597Z,39.68
2022-08-26T04:42:58.014Z,39.80
2022-08-26T04:45:43.518Z,39.87
2022-08-26T04:48:13.299Z,39.91
2022-08-26T04:50:49.579Z,39.78
2022-08-26T04:53:19.159Z,39.95
2022-08-26T04:55:55.382Z,40.10
2022-08-26T04:58:27.493Z,40.09
2022-08-26T05:00:56.734Z,40.20
2022-08-26T05:03:27.061Z,39.89
2022-08-26T05:05:56.251Z,40.15
2022-08-26T05:08:25.823Z,40.09
2022-08-26T05:10:56.396Z,40.11
2022-08-26T05:13:27.819Z,40.03
2022-08-26T05:16:01.332Z,40.02
2022-08-26T05:18:31.395Z,39.98
2022-08-26T05:21:01.850Z,40.01
2022-08-26T05:23:35.121Z,39.85
2022-08-26T05:26:11.438Z,39.94
2022-08-26T05:28:40.631Z,39.94
2022-08-26T05:31:24.744Z,39.97
2022-08-26T05:34:00.138Z,40.00
2022-08-26T05:36:41.612Z,40.04
2022-08-26T05:39:16.074Z,40.14
2022-08-26T05:42:02.341Z,40.08
2022-08-26T05:44:53.526Z,39.84
2022-08-26T05:50:25.263Z,39.79
2022-08-26T05:52:58.597Z,39.56
2022-08-26T05:58:17.630Z,39.56
2022-08-26T06:00:56.984Z,39.39
2022-08-26T06:03:26.828Z,39.20
2022-08-26T06:05:56.620Z,39.13
2022-08-26T06:08:26.329Z,38.84
2022-08-26T06:11:01.497Z,38.79
2022-08-26T06:13:33.244Z,38.56
2022-08-26T06:16:11.560Z,38.71
2022-08-26T06:19:10.739Z,38.63
2022-08-26T06:21:42.310Z,38.28
2022-08-26T06:24:35.904Z,38.21
2022-08-26T06:27:13.067Z,37.85
2022-08-26T06:32:29.097Z,37.55
2022-08-26T06:34:58.985Z,37.44
2022-08-26T06:37:28.778Z,37.37
2022-08-26T06:39:58.987Z,37.12
2022-08-26T06:42:29.197Z,37.01
2022-08-26T06:45:00.354Z,36.80
2022-08-26T06:47:30.029Z,36.78
2022-08-26T06:50:50.367Z,36.64
2022-08-26T06:56:51.548Z,35.99
2022-08-26T07:01:14.514Z,36.04
2022-08-26T07:02:29.400Z,36.22
2022-08-26T07:17:14.740Z,34.38
2022-08-26T07:17:17.368Z,35.35
2022-08-26T07:23:01.465Z,33.90
2022-08-26T07:23:11.787Z,34.17
2022-08-26T07:28:03.186Z,33.55
2022-08-26T07:29:44.866Z,33.29
2022-08-26T07:32:18.656Z,33.45
2022-08-26T07:34:49.897Z,33.15
2022-08-26T07:37:19.661Z,32.91
2022-08-26T07:39:54.523Z,32.54
2022-08-26T07:42:27.152Z,32.48
2022-08-26T07:45:04.511Z,32.32
2022-08-26T07:47:35.172Z,32.11
2022-08-26T07:57:35.415Z,31.63
2022-08-26T07:57:39.926Z,31.81
2022-08-26T08:00:07.570Z,31.32
2022-08-26T08:02:36.744Z,30.98
2022-08-26T08:05:10.535Z,31.10
2022-08-26T08:07:45.588Z,31.21
2022-08-26T08:10:20.851Z,31.04
2022-08-26T08:12:57.583Z,30.67
2022-08-26T08:15:36.781Z,30.43
2022-08-26T08:18:06.041Z,30.36
2022-08-26T08:20:59.462Z,30.18
2022-08-26T08:23:50.502Z,30.22
2022-08-26T08:32:02.047Z,29.81
2022-08-26T08:34:33.533Z,29.61
2022-08-26T08:45:55.360Z,29.12
2022-08-26T08:49:11.003Z,29.03
2022-08-26T09:19:14.438Z,28.58
2022-08-26T09:21:58.228Z,28.28
2022-08-26T09:24:41.647Z,28.28
2022-08-26T09:27:12.364Z,28.06
2022-08-26T09:29:53.506Z,27.90
2022-08-26T09:32:36.006Z,27.77
2022-08-26T09:35:08.409Z,27.60
2022-08-26T09:38:09.077Z,27.49
2022-08-26T09:40:56.235Z,27.53
2022-08-26T09:43:37.161Z,27.95
2022-08-26T09:46:35.994Z,27.86
2022-08-26T09:57:14.009Z,27.56
2022-08-26T09:59:44.124Z,27.38
2022-08-26T10:02:29.728Z,27.36
2022-08-26T10:05:09.337Z,27.28
2022-08-26T10:07:46.555Z,27.28
2022-08-26T10:10:18.620Z,27.18
2022-08-26T10:12:59.201Z,27.12
2022-08-26T10:15:33.436Z,27.12
2022-08-26T10:18:10.206Z,27.08
2022-08-26T10:20:49.583Z,27.04
2022-08-26T10:23:23.277Z,26.97
2022-08-26T10:25:59.183Z,27.04
2022-08-26T10:28:35.813Z,27.13
2022-08-26T10:31:20.445Z,26.85
2022-08-26T10:34:00.854Z,26.99
2022-08-26T10:37:14.459Z,26.78
2022-08-26T10:39:59.304Z,26.74
2022-08-26T10:42:50.249Z,26.46
2022-08-26T10:45:37.369Z,26.62
2022-08-26T10:48:13.016Z,26.32
2022-08-26T10:50:44.351Z,26.12
2022-08-26T10:53:24.949Z,25.97
2022-08-26T10:56:18.740Z,25.83
2022-08-26T10:59:01.718Z,25.64
2022-08-26T11:01:55.391Z,26.01
2022-08-26T11:04:50.860Z,25.90
2022-08-26T11:07:47.985Z,25.83
2022-08-26T11:11:03.233Z,25.67
2022-08-26T11:14:03.496Z,25.52
2022-08-26T11:16:45.965Z,25.41
2022-08-26T11:20:00.666Z,25.47
2022-08-26T11:28:45.484Z,24.67
2022-08-26T11:30:57.765Z,24.72
2022-08-26T11:34:20.354Z,24.55
2022-08-26T11:37:07.444Z,24.21
2022-08-26T11:40:15.597Z,24.24
2022-08-26T12:13:43.091Z,23.86
2022-08-26T12:16:27.212Z,23.59
2022-08-26T12:18:57.675Z,23.70
2022-08-26T12:21:34.719Z,23.23
2022-08-26T12:24:05.511Z,23.42
2022-08-26T12:26:36.865Z,23.43
2022-08-26T12:29:20.017Z,23.22
2022-08-26T12:32:08.759Z,23.08
2022-08-26T12:34:38.191Z,23.04
2022-08-26T12:37:10.157Z,23.17
2022-08-26T12:39:42.477Z,23.17
2022-08-26T12:42:40.031Z,23.25
2022-08-26T12:45:10.645Z,23.11
2022-08-26T12:47:43.980Z,22.83
2022-08-26T12:50:20.494Z,22.63
2022-08-26T12:52:57.443Z,22.38
2022-08-26T12:55:38.607Z,22.51
2022-08-26T12:58:23.916Z,22.53
2022-08-26T13:00:54.867Z,22.21
2022-08-26T13:03:43.185Z,22.42
2022-08-26T13:06:16.991Z,22.17
2022-08-26T13:08:47.745Z,21.90
2022-08-26T13:11:19.744Z,21.87
2022-08-26T13:13:56.877Z,21.67
2022-08-26T13:16:25.387Z,21.68
2022-08-26T13:18:57.589Z,21.70
2022-08-26T13:21:29.779Z,21.63
2022-08-26T13:24:11.223Z,21.39
2022-08-26T13:26:40.807Z,21.13
2022-08-26T13:29:10.681Z,21.15
2022-08-26T13:31:42.097Z,21.13
2022-08-26T13:34:13.999Z,20.97
2022-08-26T13:36:44.323Z,21.03
2022-08-26T13:39:13.638Z,21.14
2022-08-26T13:41:42.995Z,21.20
2022-08-26T13:44:13.048Z,21.15
2022-08-26T13:46:42.123Z,21.24
2022-08-26T13:49:12.116Z,21.33
2022-08-26T13:51:41.392Z,21.54
2022-08-26T13:54:10.214Z,21.38
2022-08-26T13:56:39.196Z,21.45
2022-08-26T13:59:08.247Z,21.30
2022-08-26T14:01:39.498Z,21.06
2022-08-26T14:04:08.633Z,20.99
2022-08-26T14:06:37.563Z,21.02
2022-08-26T14:09:06.562Z,20.97
2022-08-26T14:11:50.596Z,21.06
2022-08-26T14:14:24.555Z,20.84
2022-08-26T14:16:58.862Z,20.90
2022-08-26T14:19:30.115Z,20.82
2022-08-26T14:22:00.515Z,20.81
2022-08-26T14:24:29.857Z,20.68
2022-08-26T14:26:58.906Z,20.65
2022-08-26T14:29:28.121Z,20.43
2022-08-26T14:32:00.678Z,20.30
2022-08-26T14:34:30.001Z,20.28
2022-08-26T14:36:59.003Z,20.29
2022-08-26T14:39:37.781Z,20.10
2022-08-26T14:42:08.438Z,20.13
2022-08-26T14:44:38.048Z,20.17
2022-08-26T14:47:07.928Z,20.13
2022-08-26T14:49:40.322Z,20.06
2022-08-26T14:52:09.524Z,20.04
2022-08-26T14:54:38.925Z,20.02
2022-08-26T14:57:11.239Z,19.95
2022-08-26T14:59:42.933Z,19.82
2022-08-26T15:02:27.747Z,19.72
2022-08-26T15:05:03.581Z,19.80
2022-08-26T15:07:32.678Z,19.92
2022-08-26T15:10:01.711Z,19.81
2022-08-26T15:12:30.884Z,19.86
2022-08-26T15:15:00.194Z,19.69
2022-08-26T15:17:29.261Z,19.84
2022-08-26T15:19:58.275Z,19.76
2022-08-26T15:22:29.825Z,19.78
2022-08-26T15:24:59.149Z,19.62
2022-08-26T15:27:28.422Z,19.81
2022-08-26T15:29:57.350Z,19.79
2022-08-26T15:32:26.466Z,19.79
2022-08-26T15:34:55.515Z,19.77
2022-08-26T15:37:24.773Z,19.83
2022-08-26T15:39:53.681Z,19.83
2022-08-26T15:42:22.977Z,20.03
2022-08-26T15:44:52.325Z,20.02
2022-08-26T15:47:21.700Z,20.09
2022-08-26T15:49:50.857Z,20.12
2022-08-26T15:52:19.729Z,20.12
2022-08-26T15:54:48.754Z,20.13
2022-08-26T15:57:22.605Z,20.14
2022-08-26T15:59:51.703Z,20.11
2022-08-26T16:02:20.858Z,20.31
2022-08-26T16:04:49.914Z,20.38
2022-08-26T16:07:31.818Z,20.37
2022-08-26T16:10:00.769Z,20.31
2022-08-26T16:12:29.868Z,20.40
2022-08-26T16:14:58.779Z,20.47
2022-08-26T16:17:28.106Z,20.51
2022-08-26T16:19:57.320Z,20.58
2022-08-26T16:22:26.887Z,20.74
2022-08-26T16:24:58.629Z,20.72
2022-08-26T16:27:27.506Z,20.81
2022-08-26T16:29:56.375Z,20.90
2022-08-26T16:32:28.283Z,20.93
2022-08-26T16:35:00.478Z,21.07
2022-08-26T16:37:29.561Z,21.26
2022-08-26T16:39:58.534Z,21.31
2022-08-26T16:42:27.542Z,21.36
2022-08-26T16:44:56.555Z,21.44
2022-08-26T16:47:26.477Z,21.51
2022-08-26T16:49:55.396Z,21.70
2022-08-26T16:52:24.977Z,21.83
2022-08-26T16:54:59.158Z,21.83
2022-08-26T16:57:28.389Z,22.05
2022-08-26T16:59:57.265Z,22.09
2022-08-26T17:02:26.804Z,22.16
2022-08-26T17:04:55.955Z,22.29
2022-08-26T17:07:26.083Z,22.58
2022-08-26T17:09:55.681Z,22.53
2022-08-26T17:12:24.963Z,22.60
2022-08-26T17:14:53.828Z,22.64
2022-08-26T17:17:22.810Z,22.74
2022-08-26T17:19:51.972Z,22.90
2022-08-26T17:22:20.875Z,22.75
2022-08-26T17:24:49.838Z,23.24
2022-08-26T17:27:19.405Z,23.19
2022-08-26T17:29:48.299Z,23.24
2022-08-26T17:32:17.268Z,23.30
2022-08-26T17:34:46.659Z,23.36
2022-08-26T17:37:16.384Z,23.50
2022-08-26T17:39:45.434Z,23.58
2022-08-26T17:42:14.689Z,23.85
2022-08-26T17:44:46.366Z,23.81
2022-08-26T17:47:15.588Z,24.13
2022-08-26T17:49:45.052Z,24.30
2022-08-26T17:52:14.250Z,24.43
2022-08-26T17:54:43.307Z,24.38
2022-08-26T17:57:12.333Z,24.50
2022-08-26T17:59:41.781Z,24.61
2022-08-26T18:02:10.829Z,24.83
2022-08-26T18:04:39.771Z,25.12
2022-08-26T18:07:09.206Z,25.06
2022-08-26T18:09:38.055Z,25.15
2022-08-26T18:12:08.131Z,25.41
2022-08-26T18:14:37.271Z,25.64
2022-08-26T18:17:06.283Z,25.69
2022-08-26T18:19:35.896Z,25.81
2022-08-26T18:22:06.324Z,25.91
2022-08-26T18:24:35.491Z,26.18
2022-08-26T18:27:05.106Z,26.35
2022-08-26T18:29:34.300Z,26.40
2022-08-26T18:32:03.794Z,26.65
2022-08-26T18:34:34.109Z,26.84
2022-08-26T18:37:03.190Z,27.05
2022-08-26T18:39:32.352Z,27.00
2022-08-26T18:42:01.495Z,27.26
2022-08-26T18:44:30.428Z,27.35
2022-08-26T18:46:59.398Z,27.48
2022-08-26T18:49:28.997Z,27.61
2022-08-26T18:51:57.977Z,27.86
2022-08-26T18:54:27.209Z,27.97
2022-08-26T18:56:56.163Z,27.92
2022-08-26T18:59:29.626Z,28.09
2022-08-26T19:02:00.523Z,28.29
2022-08-26T19:04:29.442Z,28.38
2022-08-26T19:06:58.513Z,28.43
2022-08-26T19:09:28.161Z,28.83
2022-08-26T19:11:58.384Z,28.75
2022-08-26T19:14:27.519Z,28.96
2022-08-26T19:16:56.646Z,29.05
2022-08-26T19:19:25.662Z,29.22
2022-08-26T19:21:54.671Z,29.36
2022-08-26T19:24:27.294Z,29.42
2022-08-26T19:27:00.107Z,29.43
2022-08-26T19:29:33.738Z,29.62
2022-08-26T19:32:04.165Z,29.59
2022-08-26T19:34:33.279Z,29.78
2022-08-26T19:37:02.365Z,29.73
2022-08-26T19:39:31.263Z,29.79
2022-08-26T19:42:00.266Z,29.93
2022-08-26T19:44:47.658Z,30.08
2022-08-26T19:47:16.684Z,30.19
2022-08-26T19:49:45.669Z,30.31
2022-08-26T19:52:14.841Z,30.31
2022-08-26T19:54:44.317Z,30.41
2022-08-26T19:57:13.158Z,30.49
2022-08-26T19:59:43.827Z,30.46
2022-08-26T20:02:14.170Z,30.78
2022-08-26T20:04:43.865Z,30.87
2022-08-26T20:07:18.115Z,30.89
2022-08-26T20:09:48.960Z,30.92
2022-08-26T20:12:18.525Z,31.08
2022-08-26T20:14:47.822Z,31.12
2022-08-26T20:17:16.810Z,31.31
2022-08-26T20:20:04.216Z,31.53
2022-08-26T20:22:33.995Z,31.67
2022-08-26T20:25:02.894Z,31.74
2022-08-26T20:27:37.662Z,31.72
2022-08-26T20:30:10.032Z,31.86
2022-08-26T20:32:39.881Z,32.16
2022-08-26T20:35:13.655Z,32.22
2022-08-26T20:37:43.153Z,32.41
2022-08-26T20:40:14.704Z,32.37
2022-08-26T20:42:43.596Z,32.62
2022-08-26T20:45:12.830Z,32.68
2022-08-26T20:47:43.055Z,32.75
2022-08-26T20:50:12.034Z,32.92
2022-08-26T20:52:41.236Z,33.06
2022-08-26T20:55:11.078Z,33.17
2022-08-26T20:57:41.640Z,33.18
2022-08-26T21:00:13.734Z,33.22
2022-08-26T21:02:44.081Z,33.38
2022-08-26T21:05:13.185Z,33.51
2022-08-26T21:07:42.550Z,33.47
2022-08-26T21:10:14.705Z,33.60
2022-08-26T21:12:43.719Z,33.86
2022-08-26T21:15:12.913Z,33.79
2022-08-26T21:17:41.831Z,34.03
2022-08-26T21:20:11.155Z,34.15
2022-08-26T21:22:40.293Z,34.35
2022-08-26T21:25:11.023Z,34.62
2022-08-26T21:27:39.945Z,35.03
2022-08-26T21:30:11.605Z,35.06
2022-08-26T21:32:40.647Z,35.21
2022-08-26T21:35:10.891Z,34.85
2022-08-26T21:37:39.995Z,34.83
2022-08-26T21:40:10.885Z,34.99
2022-08-26T21:42:39.989Z,35.19
2022-08-26T21:45:10.087Z,35.61
2022-08-26T21:47:40.040Z,35.66
2022-08-26T21:50:09.820Z,35.98
2022-08-26T21:52:39.707Z,36.21
2022-08-26T21:55:11.707Z,36.47
2022-08-26T21:57:40.931Z,36.79
2022-08-26T22:00:15.153Z,37.05
2022-08-26T22:02:44.373Z,37.32
2022-08-26T22:05:13.622Z,37.50
2022-08-26T22:07:42.476Z,37.49
2022-08-26T22:10:11.971Z,37.66
2022-08-26T22:12:40.841Z,37.86
2022-08-26T22:15:11.645Z,38.12
2022-08-26T22:17:40.689Z,38.53
2022-08-26T22:20:16.566Z,39.07
2022-08-26T22:22:46.134Z,39.37
2022-08-26T22:25:15.381Z,39.54
2022-08-26T22:27:44.273Z,39.76
2022-08-26T22:30:14.017Z,39.98
2022-08-26T22:32:45.111Z,39.79
2022-08-26T22:35:29.203Z,40.24
2022-08-26T22:37:59.302Z,40.50
2022-08-26T22:40:28.445Z,40.43
2022-08-26T22:43:00.227Z,40.34
2022-08-26T22:45:31.182Z,40.28
2022-08-26T22:48:04.417Z,40.43
2022-08-26T22:50:33.680Z,40.43
2022-08-26T22:53:02.678Z,40.80
2022-08-26T22:55:31.739Z,40.84
2022-08-26T22:58:01.374Z,41.00
2022-08-26T23:00:32.366Z,41.36
2022-08-26T23:03:03.758Z,41.27
2022-08-26T23:05:33.053Z,41.63
2022-08-26T23:08:02.863Z,41.96
2022-08-26T23:10:32.164Z,41.97
2022-08-26T23:13:01.804Z,42.08
2022-08-26T23:15:31.331Z,41.77
2022-08-26T23:18:00.529Z,41.72
2022-08-26T23:20:30.732Z,41.71
2022-08-26T23:23:00.866Z,41.75
2022-08-26T23:25:31.876Z,41.80
2022-08-26T23:28:01.127Z,42.09
2022-08-26T23:30:32.415Z,42.06
2022-08-26T23:33:01.836Z,42.17
2022-08-26T23:35:30.945Z,42.34
2022-08-26T23:38:01.146Z,42.48
2022-08-26T23:40:33.889Z,42.92
2022-08-26T23:43:05.297Z,42.84
2022-08-26T23:45:34.794Z,43.22
2022-08-26T23:48:05.027Z,43.18
2022-08-26T23:51:03.970Z,43.33
2022-08-26T23:53:33.620Z,43.35
2022-08-26T23:56:02.885Z,43.37
2022-08-26T23:58:31.928Z,43.42
